Terminal Aerodrome Forecast
Issued by NWS

Home | Current Version | Previous Version | Text Only | Print | Product List | Glossary On
Versions: 1 2 3 4 5 6 7 8 9 10 11 12 13 14 15 16
000
FTUS46 KMFR 172300
TAFRBG
TAF
KRBG 172339Z 1800/1824 34006KT P6SM FEW040 BKN120
     FM180600 VRB02KT P6SM SCT050 OVC100
     FM181200 VRB03KT P6SM -SHRA BKN050 OVC090
     FM181800 VRB03KT P6SM VCSH SCT050 BKN090=

USA.gov is the U.S. government's official web portal to all federal, state and local government web resources and services.